Rome State, OR

4:07 PM MST on December 18, 2014 (GMT -0700)
Rome State | Change Station
CLOSE
Current Station
Airport
Location: Rome,
Elevation: 4049 ft
Nearby Weather Stations

Elev 4049 ft 42.59 °N, 117.86 °W | Updated 15 minutes ago

Overcast
Overcast
45 °F
Feels Like 40 °F
N
9
Wind Variable Wind from SW
Gusts 7 mph

Today
High -- | Low -- °F
--% Chance of Precip.
Yesterday
High -- | Low -- °F
Precip. -- in
8:16 AM 5:20 PM
Waning Crescent, 11% visible
Pressure 30.08 in
Visibility -9999.0 miles
Clouds
Windchill 40 °F
Dew Point 28 °F
Humidity 52%
Rainfall 0.00 in
Snow Depth Not available.
UV Not available.
Pollen .30 out of 12
Air Quality Not available.
Flu Activity Not available.
METAR KREO 182252Z AUTO 23008KT 07/M02 A3004 RMK AO1 SLP186 T00721022

More Conditions Fewer Conditions

Pressure 30.08 in
Visibility -9999.0 miles
Clouds
Windchill 40 °F
Dew Point 28 °F
Humidity 52%
Rainfall 0.00 in
Snow Depth Not available.
UV Not available.
Pollen .30 out of 12
Air Quality Not available.
Flu Activity Not available.
METAR KREO 182252Z AUTO 23008KT 07/M02 A3004 RMK AO1 SLP186 T00721022

More Conditions Fewer Conditions

10-Day Weather Forecast

Almanac

Astronomy

Dec. 18, 2014 Rise Set
Actual Time
Civil Twilight
Nautical Twilight
Astronomical Twilight
Moon
Length of Visible Light
Length of Day
Tomorrow will be .
, % of the Moon is Illuminated

Today's Extremes

State Highs State Lows

Community

WunderPhotos

Upload Photos

1,779,014 photos uploaded!

WunderBlogs® & News

Nearby

Air Quality

  Air Quality AQ Index Pollutant
Not available.

Snow Depth

Station Depth Elevation

Earthquake Activity

City Distance Mag. Time & Date
Minimum magnitude displayed is 2.5.

Coastal Water Temperatures

Place Temperature

Nearby Weather Stations